Time;durP1;ratioP1;P1;durP2;ratioP2;P2;SDS_P1;SDS_P2;PMS_P1;PMS_P2;Temp;Humidity;BMP_temperature;BMP_pressure;BME280_temperature;BME280_humidity;BME280_pressure;Samples;Min_cycle;Max_cycle;Signal;HPM_P1;HPM_P2
2022/05/19 00:01:01;;;;;;;23.80;15.02;;;;;;;21.28;72.58;101646.16;5015658;28;20069;-48
2022/05/19 00:03:34;;;;;;;21.40;14.57;;;;;;;21.26;72.57;101645.69;5016718;28;20042;-48
2022/05/19 00:06:03;;;;;;;20.85;14.32;;;;;;;21.26;72.65;101644.84;5020865;28;20045;-47
2022/05/19 00:08:31;;;;;;;20.92;15.07;;;;;;;21.25;72.42;101649.56;5016805;28;20037;-46
2022/05/19 00:11:01;;;;;;;30.90;16.05;;;;;;;21.22;72.72;101650.22;5018132;28;20045;-50
2022/05/19 00:13:30;;;;;;;20.48;14.32;;;;;;;21.18;72.86;101640.91;5035296;28;20050;-48
2022/05/19 00:15:58;;;;;;;21.65;13.93;;;;;;;21.16;73.01;101629.31;5002982;28;20061;-49
2022/05/19 00:18:27;;;;;;;22.58;15.20;;;;;;;21.15;72.89;101624.94;5032466;28;20175;-49
2022/05/19 00:20:54;;;;;;;21.42;14.63;;;;;;;21.11;73.00;101626.69;5034954;28;20045;-44
2022/05/19 00:23:22;;;;;;;20.95;15.00;;;;;;;21.09;73.38;101626.19;5017355;28;20041;-49
2022/05/19 00:25:50;;;;;;;24.55;14.50;;;;;;;21.05;73.15;101614.94;5025474;28;20037;-47
2022/05/19 00:28:18;;;;;;;24.80;14.55;;;;;;;21.05;73.42;101617.72;5032902;28;20049;-47
2022/05/19 00:30:46;;;;;;;20.35;13.82;;;;;;;21.03;73.59;101611.69;5034864;28;20053;-49
2022/05/19 00:33:13;;;;;;;22.67;15.18;;;;;;;21.06;73.72;101610.22;5016600;28;20056;-48
2022/05/19 00:35:41;;;;;;;19.63;14.77;;;;;;;21.04;73.54;101610.53;5028543;28;20041;-49
2022/05/19 00:38:09;;;;;;;22.33;14.65;;;;;;;21.02;73.55;101609.22;5015062;28;20069;-48
2022/05/19 00:40:37;;;;;;;20.00;14.27;;;;;;;20.93;73.99;101602.84;4997899;28;20515;-47
2022/05/19 00:43:06;;;;;;;22.25;14.15;;;;;;;20.91;74.38;101596.81;5014803;28;20045;-48
2022/05/19 00:45:59;;;;;;;23.10;14.80;;;;;;;20.89;74.35;101596.31;4998266;28;20107;-48
2022/05/19 00:48:56;;;;;;;20.10;13.05;;;;;;;20.91;74.34;101594.84;4981000;28;20485;-47
2022/05/19 00:51:38;;;;;;;23.25;15.00;;;;;;;20.97;74.14;101590.81;4994559;28;20046;-46
2022/05/19 00:54:09;;;;;;;20.45;14.70;;;;;;;20.99;74.03;101587.69;5030096;28;20046;-46
2022/05/19 00:57:00;;;;;;;24.30;15.80;;;;;;;20.90;74.01;101584.06;5014620;28;20034;-49
2022/05/19 00:59:34;;;;;;;22.10;14.52;;;;;;;20.88;74.68;101586.34;4980931;28;20042;-50
2022/05/19 01:02:03;;;;;;;24.10;15.20;;;;;;;20.88;74.57;101580.78;4996536;28;20042;-47
2022/05/19 01:04:57;;;;;;;23.17;14.88;;;;;;;20.87;74.73;101584.72;4998938;28;20459;-51
2022/05/19 01:07:50;;;;;;;27.25;15.00;;;;;;;20.88;74.47;101586.34;5016911;28;20048;-47
2022/05/19 01:10:42;;;;;;;23.52;14.63;;;;;;;20.87;74.77;101587.50;5018451;28;20056;-47
2022/05/19 01:13:21;;;;;;;22.85;14.63;;;;;;;20.82;74.95;101574.59;5001482;28;20054;-47
2022/05/19 01:16:00;;;;;;;23.30;15.60;;;;;;;20.80;75.19;101577.66;4998373;28;20057;-47
2022/05/19 01:18:39;;;;;;;31.08;15.60;;;;;;;20.78;75.40;101577.19;4997375;28;20050;-47
2022/05/19 01:21:08;;;;;;;24.27;14.65;;;;;;;20.77;75.56;101575.53;4998600;28;20041;-48
2022/05/19 01:24:04;;;;;;;23.65;15.23;;;;;;;20.76;75.45;101565.63;5015700;28;20508;-46
2022/05/19 01:26:40;;;;;;;21.75;14.68;;;;;;;20.71;75.86;101563.00;5014239;28;20045;-48
2022/05/19 01:29:08;;;;;;;24.77;14.70;;;;;;;20.65;76.27;101553.19;5032629;28;20128;-48
2022/05/19 01:31:37;;;;;;;25.63;15.93;;;;;;;20.64;76.48;101548.78;5012991;28;20056;-45
2022/05/19 01:34:07;;;;;;;21.88;14.60;;;;;;;20.60;76.71;101536.72;5032955;28;20095;-50
2022/05/19 01:36:35;;;;;;;26.35;16.70;;;;;;;20.58;76.84;101538.97;5033594;28;20041;-46
2022/05/19 01:39:16;;;;;;;23.25;15.05;;;;;;;20.53;77.28;101531.59;5007215;28;20552;-47
2022/05/19 01:42:16;;;;;;;25.40;16.42;;;;;;;20.50;77.52;101532.22;5013853;28;20080;-48
2022/05/19 01:45:00;;;;;;;22.60;15.15;;;;;;;20.48;78.03;101528.16;5022550;28;20096;-52
2022/05/19 01:47:43;;;;;;;19.80;14.95;;;;;;;20.53;77.47;101533.53;5014089;28;20052;-47
2022/05/19 01:50:28;;;;;;;22.23;15.18;;;;;;;20.53;78.13;101528.00;5027084;28;20049;-48
2022/05/19 01:53:01;;;;;;;23.55;16.85;;;;;;;20.58;77.88;101527.91;5033356;28;20160;-49
2022/05/19 01:55:38;;;;;;;24.25;15.55;;;;;;;20.59;77.76;101527.59;5027629;28;20478;-48
2022/05/19 01:58:47;;;;;;;27.15;16.30;;;;;;;20.65;77.33;101522.72;5013952;28;20547;-47
2022/05/19 02:01:17;;;;;;;24.90;16.80;;;;;;;20.67;77.56;101527.94;4986916;28;20054;-49
2022/05/19 02:03:54;;;;;;;28.08;15.95;;;;;;;20.63;77.72;101514.72;4995914;28;20539;-51
2022/05/19 02:06:32;;;;;;;24.83;16.23;;;;;;;20.64;77.63;101521.91;5013139;28;20071;-46
2022/05/19 02:09:05;;;;;;;22.02;15.02;;;;;;;20.69;77.36;101526.50;5026653;28;20521;-47
2022/05/19 02:11:36;;;;;;;21.10;14.32;;;;;;;20.73;77.14;101518.34;5033141;28;20476;-47
2022/05/19 02:14:07;;;;;;;22.38;14.18;;;;;;;20.75;77.04;101516.06;5032942;28;20042;-48
2022/05/19 02:16:36;;;;;;;20.65;14.15;;;;;;;20.78;76.77;101521.81;5027199;28;20492;-50
2022/05/19 02:19:04;;;;;;;20.92;13.95;;;;;;;20.80;76.49;101521.47;5004972;28;20041;-48
2022/05/19 02:21:31;;;;;;;20.17;13.73;;;;;;;20.80;76.34;101518.69;5001172;28;20048;-47
2022/05/19 02:24:01;;;;;;;21.77;14.00;;;;;;;20.80;76.35;101527.00;5015151;28;20049;-48
2022/05/19 02:26:37;;;;;;;21.70;13.35;;;;;;;20.80;76.33;101521.47;5014973;28;20088;-48
2022/05/19 02:29:06;;;;;;;;;;;;;;;20.83;75.93;101523.63;4996123;28;20044;-48
2022/05/19 02:31:34;;;;;;;24.35;13.90;;;;;;;20.84;75.95;101517.75;4995298;28;19921;-48
2022/05/19 02:34:02;;;;;;;22.92;14.70;;;;;;;20.83;75.78;101524.44;4997474;28;20065;-48
2022/05/19 02:36:30;;;;;;;20.90;12.65;;;;;;;20.81;75.82;101521.16;5008643;28;20547;-46
2022/05/19 02:38:57;;;;;;;20.23;13.75;;;;;;;20.81;75.69;101521.16;5030748;28;20056;-49
2022/05/19 02:41:26;;;;;;;18.02;12.07;;;;;;;20.81;75.51;101521.16;5032149;28;20088;-48
2022/05/19 02:43:54;;;;;;;20.85;13.63;;;;;;;20.82;75.18;101521.97;5032570;28;20060;-51
2022/05/19 02:46:21;;;;;;;18.25;12.38;;;;;;;20.82;75.04;101531.09;5027186;28;20049;-49
2022/05/19 02:48:49;;;;;;;20.33;12.57;;;;;;;20.81;74.95;101525.88;5012642;28;20501;-48
2022/05/19 02:51:17;;;;;;;20.63;12.98;;;;;;;20.81;74.70;101535.00;5012781;28;20052;-48
2022/05/19 02:53:44;;;;;;;18.63;12.77;;;;;;;20.81;74.64;101537.78;5012908;28;20049;-47
2022/05/19 02:56:12;;;;;;;21.35;13.05;;;;;;;20.79;74.54;101537.28;5012818;28;20128;-46
2022/05/19 02:58:39;;;;;;;22.23;12.85;;;;;;;20.78;74.41;101540.34;5014683;28;20497;-49
2022/05/19 03:01:08;;;;;;;21.13;13.32;;;;;;;20.79;74.60;101544.78;5012361;28;20046;-48
2022/05/19 03:03:36;;;;;;;16.85;12.63;;;;;;;20.78;74.28;101537.59;5012664;28;20070;-51
2022/05/19 03:06:03;;;;;;;16.92;11.55;;;;;;;20.76;74.36;101540.69;5014212;28;20048;-47
2022/05/19 03:08:31;;;;;;;19.77;12.25;;;;;;;20.78;74.26;101540.34;5014921;28;20084;-47
2022/05/19 03:10:59;;;;;;;20.45;13.00;;;;;;;20.77;74.06;101547.84;5021640;28;20045;-49
2022/05/19 03:13:26;;;;;;;17.40;12.35;;;;;;;20.76;74.08;101564.81;5013147;28;20058;-51
2022/05/19 03:15:54;;;;;;;18.65;11.48;;;;;;;20.77;73.92;101594.94;5013122;28;20049;-51
2022/05/19 03:18:22;;;;;;;24.00;13.30;;;;;;;20.71;74.36;101676.53;5030155;28;20053;-50
2022/05/19 03:20:49;;;;;;;21.77;14.82;;;;;;;20.61;75.76;101679.53;4995112;28;20046;-47
2022/05/19 03:23:17;;;;;;;23.25;15.35;;;;;;;20.53;76.76;101667.25;4996095;28;20042;-48
2022/05/19 03:25:44;;;;;;;19.17;13.93;;;;;;;20.52;76.92;101673.94;5000523;28;20033;-48
2022/05/19 03:28:15;;;;;;;20.95;13.60;;;;;;;20.53;75.34;101696.91;5035461;28;20164;-47
2022/05/19 03:30:43;;;;;;;16.25;11.95;;;;;;;;;;5024986;28;20038;-45
2022/05/19 03:33:13;;;;;;;18.10;10.43;;;;;;;20.65;73.88;101658.41;5016204;28;20137;-49
2022/05/19 03:35:42;;;;;;;18.63;11.48;;;;;;;20.72;73.50;101682.88;5008662;28;20064;-49
2022/05/19 03:38:09;;;;;;;21.40;12.88;;;;;;;20.77;73.28;101704.91;5034326;28;20501;-48
2022/05/19 03:40:37;;;;;;;19.80;11.75;;;;;;;20.78;73.67;101696.31;5036040;28;20050;-51
2022/05/19 03:43:05;;;;;;;21.83;12.25;;;;;;;20.79;73.90;101689.63;5018408;28;20055;-49
2022/05/19 03:45:39;;;;;;;19.30;12.77;;;;;;;20.79;74.23;101686.84;5023851;28;20050;-49
2022/05/19 03:48:07;;;;;;;21.10;12.43;;;;;;;20.78;74.50;101690.75;4999599;28;20056;-51
2022/05/19 03:50:35;;;;;;;18.95;12.20;;;;;;;20.79;74.60;101695.16;5013316;28;20052;-49
2022/05/19 03:53:03;;;;;;;17.48;11.77;;;;;;;20.79;74.68;101689.63;5017879;28;20056;-49
2022/05/19 03:55:30;;;;;;;17.98;12.95;;;;;;;20.80;75.15;101691.22;5028838;28;20041;-51
2022/05/19 03:57:58;;;;;;;20.10;12.20;;;;;;;20.79;75.20;101697.91;5016907;28;20053;-47
2022/05/19 04:00:26;;;;;;;20.95;12.80;;;;;;;20.80;75.30;101695.97;5013433;28;20042;-48
2022/05/19 04:02:55;;;;;;;19.55;12.25;;;;;;;20.79;75.54;101706.22;5015693;28;20049;-50
2022/05/19 04:05:27;;;;;;;22.95;12.20;;;;;;;20.78;75.84;101701.84;5027476;28;20045;-49
2022/05/19 04:07:55;;;;;;;19.92;12.73;;;;;;;20.77;76.23;101708.50;5026579;28;20072;-48
2022/05/19 04:10:24;;;;;;;19.90;11.48;;;;;;;20.78;76.20;101698.22;5015256;28;20434;-50
2022/05/19 04:12:51;;;;;;;21.10;12.15;;;;;;;20.79;76.24;101702.66;4998895;28;20504;-49
2022/05/19 04:15:19;;;;;;;20.33;12.75;;;;;;;20.80;76.33;101687.66;5022013;28;20044;-47
2022/05/19 04:17:46;;;;;;;17.10;10.85;;;;;;;20.79;76.50;101697.91;5035057;28;20045;-50
2022/05/19 04:20:14;;;;;;;17.98;11.38;;;;;;;20.80;76.33;101718.13;5015436;28;20034;-48
2022/05/19 04:22:42;;;;;;;17.52;10.73;;;;;;;20.77;75.86;101702.97;5014989;28;20080;-47
2022/05/19 04:25:11;;;;;;;19.02;9.45;;;;;;;20.76;75.43;101701.34;5016311;28;20046;-47
2022/05/19 04:27:39;;;;;;;19.92;10.07;;;;;;;20.76;75.55;101701.34;5016662;28;20065;-47
2022/05/19 04:30:07;;;;;;;13.70;8.85;;;;;;;20.77;75.35;101707.69;5034812;28;20128;-46
2022/05/19 04:32:42;;;;;;;14.93;9.10;;;;;;;20.77;75.12;101700.19;5029973;28;20054;-47
2022/05/19 04:35:11;;;;;;;15.13;8.68;;;;;;;20.78;74.96;101704.59;5006267;28;20065;-47
2022/05/19 04:37:40;;;;;;;14.25;8.40;;;;;;;20.79;74.88;101700.69;5033384;28;20045;-46
2022/05/19 04:40:09;;;;;;;14.43;8.45;;;;;;;20.78;74.62;101704.59;5014014;28;20443;-49
2022/05/19 04:42:38;;;;;;;19.40;8.70;;;;;;;20.78;74.43;101704.59;5033420;28;20041;-45
2022/05/19 04:45:07;;;;;;;14.88;7.57;;;;;;;20.77;74.48;101704.91;5034214;28;20051;-47
2022/05/19 04:47:37;;;;;;;11.65;7.07;;;;;;;20.75;73.91;101705.22;5017585;28;20045;-52
2022/05/19 04:50:07;;;;;;;14.70;6.88;;;;;;;20.75;73.69;101696.91;5032970;28;20153;-47
2022/05/19 04:52:36;;;;;;;12.00;6.30;;;;;;;20.73;73.45;101690.06;4999430;28;20052;-50
2022/05/19 04:55:08;;;;;;;11.60;5.95;;;;;;;20.71;73.48;101687.63;5016973;28;20052;-47
2022/05/19 04:57:37;;;;;;;10.60;5.93;;;;;;;20.72;73.35;101693.97;5016256;28;20115;-49
2022/05/19 05:00:07;;;;;;;10.52;5.35;;;;;;;20.73;73.29;101687.28;5034199;28;20041;-49
2022/05/19 05:02:35;;;;;;;10.88;5.15;;;;;;;20.73;73.29;101701.94;4997130;28;20416;-49
2022/05/19 05:05:05;;;;;;;8.45;5.00;;;;;;;20.75;72.93;101696.09;5033951;28;20050;-52
2022/05/19 05:07:33;;;;;;;8.88;5.00;;;;;;;20.75;73.01;101701.63;5016529;28;20038;-51
2022/05/19 05:10:00;;;;;;;10.88;4.75;;;;;;;20.73;72.89;101701.94;5033529;28;20053;-46
2022/05/19 05:12:28;;;;;;;11.93;4.90;;;;;;;20.72;72.90;101696.72;5030791;28;20041;-45
2022/05/19 05:14:56;;;;;;;13.82;5.03;;;;;;;20.71;73.11;101693.16;5033851;28;20050;-47
2022/05/19 05:17:23;;;;;;;17.17;4.82;;;;;;;20.69;72.98;101695.41;5033685;28;20049;-50
2022/05/19 05:19:51;;;;;;;12.00;4.68;;;;;;;20.68;73.19;101688.22;5033595;28;20052;-48
2022/05/19 05:22:18;;;;;;;9.05;4.25;;;;;;;20.69;73.00;101689.06;5005236;28;20137;-48
2022/05/19 05:24:46;;;;;;;11.32;4.47;;;;;;;20.70;73.00;101674.88;5014774;28;20110;-48
2022/05/19 05:27:14;;;;;;;6.90;4.10;;;;;;;20.70;73.01;101699.00;5002680;28;20041;-47
2022/05/19 05:29:42;;;;;;;9.65;4.07;;;;;;;20.68;73.36;101693.75;5031633;28;20049;-50
2022/05/19 05:32:10;;;;;;;18.40;4.72;;;;;;;20.68;73.58;101688.22;5029997;28;20107;-48
2022/05/19 05:34:37;;;;;;;14.15;4.68;;;;;;;20.69;73.51;101678.81;5021677;28;20037;-48
2022/05/19 05:37:06;;;;;;;9.85;3.58;;;;;;;20.66;73.46;101682.22;5027730;28;20487;-46
2022/05/19 05:39:34;;;;;;;7.80;4.00;;;;;;;20.64;73.78;101670.63;5013700;28;20080;-47
2022/05/19 05:42:04;;;;;;;8.43;4.20;;;;;;;20.62;73.76;101656.28;5028428;28;20112;-49
2022/05/19 05:44:32;;;;;;;6.68;4.07;;;;;;;20.52;73.87;101635.16;5014211;28;20033;-47
2022/05/19 05:47:00;;;;;;;8.75;3.70;;;;;;;20.51;74.39;101636.28;5033297;28;20083;-49
2022/05/19 05:49:28;;;;;;;10.00;4.50;;;;;;;20.49;75.44;101648.81;5032113;28;20117;-52
2022/05/19 05:51:55;;;;;;;9.48;3.95;;;;;;;20.46;76.45;101627.31;5014694;28;20037;-52
2022/05/19 05:54:23;;;;;;;9.10;3.88;;;;;;;20.37;76.55;101611.47;5019495;28;20065;-47
2022/05/19 05:56:55;;;;;;;8.30;3.33;;;;;;;20.39;77.17;101602.81;5013145;28;20550;-48
2022/05/19 05:59:22;;;;;;;8.40;3.63;;;;;;;20.45;77.81;101589.69;5013006;28;20399;-48
2022/05/19 06:01:50;;;;;;;7.82;3.20;;;;;;;20.50;77.87;101579.28;5015127;28;20072;-46
2022/05/19 06:04:18;;;;;;;8.55;3.70;;;;;;;20.55;77.69;101568.09;5015472;28;20045;-50
2022/05/19 06:06:46;;;;;;;7.97;3.58;;;;;;;20.67;76.35;101589.69;5021380;28;20068;-49
2022/05/19 06:09:14;;;;;;;11.13;3.90;;;;;;;20.68;78.26;101601.56;4337249;28;10000688;-46
2022/05/19 06:11:42;;;;;;;13.18;4.22;;;;;;;20.55;79.04;101600.50;5011933;28;20308;-49
2022/05/19 06:14:10;;;;;;;6.80;3.60;;;;;;;20.48;79.03;101592.63;5010103;28;20119;-51
2022/05/19 06:16:38;;;;;;;8.48;4.00;;;;;;;20.49;80.15;101580.41;4993350;28;20034;-48
2022/05/19 06:19:06;;;;;;;13.00;4.05;;;;;;;20.47;80.38;101568.03;5009597;28;20038;-49
2022/05/19 06:21:36;;;;;;;10.68;3.65;;;;;;;20.47;79.76;101565.25;5012001;28;20030;-50
2022/05/19 06:24:08;;;;;;;11.48;5.55;;;;;;;20.52;79.26;101562.38;5020910;28;20041;-49
2022/05/19 06:26:39;;;;;;;10.50;5.60;;;;;;;20.55;78.71;101562.56;5028979;28;20515;-49
2022/05/19 06:29:08;;;;;;;13.70;4.53;;;;;;;20.63;78.64;101563.75;5010772;28;20057;-51
2022/05/19 06:31:36;;;;;;;8.07;4.10;;;;;;;20.67;79.12;101570.28;5009374;28;20100;-49
2022/05/19 06:34:04;;;;;;;9.65;4.65;;;;;;;20.68;80.09;101574.69;5009518;28;20049;-49
2022/05/19 06:36:32;;;;;;;10.20;4.43;;;;;;;20.71;79.24;101574.06;5009781;28;20057;-50
2022/05/19 06:39:00;;;;;;;9.82;4.55;;;;;;;20.75;80.11;101583.34;5009745;28;20052;-50
2022/05/19 06:44:16;;;;;;;6.63;4.15;;;;;;;20.81;80.05;101559.94;5026651;28;20053;-49
2022/05/19 06:46:47;;;;;;;10.98;4.35;;;;;;;20.81;79.99;101565.47;5013263;28;20049;-47
2022/05/19 06:49:17;;;;;;;10.45;5.50;;;;;;;20.82;80.17;101563.50;5027406;28;20442;-52
2022/05/19 06:51:45;;;;;;;9.15;4.30;;;;;;;20.83;79.59;101573.47;4993851;28;20145;-52
2022/05/19 06:54:19;;;;;;;8.75;4.60;;;;;;;20.82;79.78;101572.63;5013554;28;20038;-47
2022/05/19 06:56:45;;;;;;;8.95;4.72;;;;;;;20.83;79.88;101573.47;4994991;28;20026;-48
2022/05/19 06:59:17;;;;;;;9.77;4.82;;;;;;;20.85;79.50;101576.72;5022752;28;20042;-49
2022/05/19 07:01:47;;;;;;;10.68;4.85;;;;;;;20.88;79.60;101576.09;5029069;28;20064;-49
2022/05/19 07:04:16;;;;;;;8.93;4.88;;;;;;;20.91;79.29;101575.44;5020117;28;20148;-50
2022/05/19 07:06:44;;;;;;;10.75;4.75;;;;;;;20.94;78.89;101574.00;5010916;28;20251;-48
2022/05/19 07:09:12;;;;;;;18.77;6.20;;;;;;;20.96;77.98;101571.72;5029038;28;20441;-49
2022/05/19 07:11:40;;;;;;;11.77;5.63;;;;;;;20.98;77.82;101558.38;5017620;28;20042;-50
2022/05/19 07:14:08;;;;;;;8.70;4.70;;;;;;;20.96;78.05;101553.13;5000405;28;20542;-48
2022/05/19 07:16:36;;;;;;;9.98;4.50;;;;;;;20.96;77.55;101568.94;5016364;28;20515;-51
2022/05/19 07:21:50;;;;;;;12.27;4.93;;;;;;;21.01;77.81;101552.19;5016293;28;20038;-50
2022/05/19 07:24:20;;;;;;;19.83;8.57;;;;;;;21.02;77.75;101570.44;5018499;28;20034;-53
2022/05/19 07:26:51;;;;;;;22.85;7.78;;;;;;;21.05;77.93;101553.19;5005210;28;20037;-51
2022/05/19 07:29:19;;;;;;;12.07;6.22;;;;;;;21.07;77.79;101553.69;5035332;28;20053;-52
2022/05/19 07:31:47;;;;;;;14.07;6.53;;;;;;;21.07;78.53;101542.59;5036210;28;20045;-49
2022/05/19 07:34:19;;;;;;;16.17;6.43;;;;;;;21.08;78.55;101540.63;5017245;28;20494;-48
2022/05/19 07:36:47;;;;;;;13.55;6.25;;;;;;;21.08;78.43;101546.97;5021198;28;20045;-50
2022/05/19 07:39:15;;;;;;;12.27;7.25;;;;;;;21.08;78.62;101541.44;5016665;28;20048;-49
2022/05/19 07:41:43;;;;;;;12.90;7.45;;;;;;;21.09;78.88;101543.06;4998534;28;20064;-47
2022/05/19 07:44:11;;;;;;;14.27;6.35;;;;;;;21.11;78.43;101526.94;4998799;28;20046;-50
2022/05/19 07:46:39;;;;;;;12.60;7.03;;;;;;;21.13;77.58;101526.63;5034314;28;20041;-47
2022/05/19 07:49:07;;;;;;;12.13;6.57;;;;;;;21.15;77.73;101527.94;5015724;28;20034;-48
2022/05/19 07:51:39;;;;;;;11.70;6.63;;;;;;;21.18;77.34;101535.59;5032852;28;20045;-47
2022/05/19 07:54:18;;;;;;;11.65;5.97;;;;;;;21.21;76.78;101546.06;5018320;28;20050;-47
2022/05/19 07:56:46;;;;;;;12.05;7.05;;;;;;;21.27;76.83;101569.69;5017972;28;20060;-48
2022/05/19 07:59:15;;;;;;;12.55;8.27;;;;;;;21.32;76.95;101571.50;5031597;28;20045;-50
2022/05/19 08:01:45;;;;;;;16.50;8.68;;;;;;;21.36;77.07;101580.81;5017620;28;20576;-45
2022/05/19 08:04:19;;;;;;;23.83;9.07;;;;;;;21.38;76.79;101583.25;5018650;28;20064;-48
2022/05/19 08:06:47;;;;;;;16.98;8.73;;;;;;;21.38;76.91;101577.69;5022017;28;20042;-48
2022/05/19 08:12:02;;;;;;;17.45;8.60;;;;;;;21.41;77.32;101571.56;5020466;28;20038;-47
2022/05/19 08:17:30;;;;;;;16.35;9.75;;;;;;;21.50;77.47;101564.06;5020669;28;20072;-47
2022/05/19 08:19:59;;;;;;;15.60;9.00;;;;;;;21.54;76.99;101553.94;4999101;28;20408;-48
2022/05/19 08:22:27;;;;;;;19.42;9.70;;;;;;;21.61;76.88;101554.28;5015038;28;20046;-48
2022/05/19 08:24:55;;;;;;;14.40;10.20;;;;;;;21.64;76.50;101552.81;5015355;28;20048;-48
2022/05/19 08:27:22;;;;;;;16.58;9.13;;;;;;;21.67;75.41;101550.22;5006805;28;20033;-51
2022/05/19 08:29:50;;;;;;;13.68;8.98;;;;;;;21.70;75.39;101538.47;5009530;28;20045;-48
2022/05/19 08:32:18;;;;;;;15.23;8.07;;;;;;;21.75;74.55;101545.81;5035642;28;20045;-47
2022/05/19 08:34:45;;;;;;;13.80;7.00;;;;;;;21.81;74.19;101543.69;5035348;28;20504;-46
2022/05/19 08:37:13;;;;;;;14.80;9.05;;;;;;;21.86;74.55;101535.19;5034179;28;20072;-46
2022/05/19 08:39:40;;;;;;;13.30;7.30;;;;;;;21.94;74.13;101539.94;5026122;28;20053;-45
2022/05/19 08:42:09;;;;;;;12.85;7.85;;;;;;;22.00;73.30;101554.44;5015180;28;20054;-50
2022/05/19 08:44:41;;;;;;;12.55;7.57;;;;;;;22.06;72.13;101556.72;4997433;28;20080;-47
2022/05/19 08:47:11;;;;;;;12.50;7.53;;;;;;;22.10;71.74;101560.50;4998081;28;20480;-48
2022/05/19 08:49:58;;;;;;;13.27;6.88;;;;;;;22.13;70.90;101547.91;4982261;28;20048;-51
2022/05/19 08:52:27;;;;;;;15.52;7.40;;;;;;;22.20;70.87;101547.38;5016150;28;20463;-46
2022/05/19 08:54:59;;;;;;;14.68;7.75;;;;;;;22.26;69.88;101548.88;4998208;28;20113;-49
2022/05/19 08:57:40;;;;;;;11.50;7.05;;;;;;;22.29;69.20;101551.00;4997598;28;20042;-48
2022/05/19 09:00:17;;;;;;;13.80;6.63;;;;;;;22.32;69.16;101544.78;5025743;28;20057;-48
2022/05/19 09:02:56;;;;;;;11.48;7.28;;;;;;;22.35;69.03;101543.31;5034610;28;20076;-45
2022/05/19 09:05:55;;;;;;;11.13;6.85;;;;;;;22.39;69.02;101538.72;5032101;28;20094;-45
2022/05/19 09:08:31;;;;;;;11.70;6.18;;;;;;;22.43;68.06;101532.19;5034120;28;20048;-47
2022/05/19 09:11:05;;;;;;;10.05;5.90;;;;;;;22.48;67.41;101537.56;5017213;28;20069;-49
2022/05/19 09:13:43;;;;;;;14.82;6.30;;;;;;;22.51;66.31;101533.28;5016997;28;20054;-47
2022/05/19 09:16:16;;;;;;;9.75;6.07;;;;;;;22.57;66.38;101528.38;5031253;28;20492;-49
2022/05/19 09:19:06;;;;;;;12.00;6.78;;;;;;;22.63;65.98;101529.81;5032761;28;20500;-47
2022/05/19 09:21:36;;;;;;;12.90;6.35;;;;;;;22.68;65.85;101529.63;5014636;28;20071;-49
2022/05/19 09:24:05;;;;;;;17.30;6.75;;;;;;;22.70;64.63;101530.13;4997419;28;20042;-48
2022/05/19 09:26:53;;;;;;;11.88;6.13;;;;;;;22.69;64.52;101525.72;5014501;28;20041;-47
2022/05/19 09:29:39;;;;;;;10.38;5.90;;;;;;;22.71;65.14;101512.31;5012969;28;20045;-49
2022/05/19 09:32:26;;;;;;;9.35;5.57;;;;;;;22.76;64.88;101515.72;5014518;28;20050;-48
2022/05/19 09:35:22;;;;;;;10.18;5.50;;;;;;;22.81;64.89;101528.59;5014000;28;20042;-48
2022/05/19 09:38:04;;;;;;;9.45;5.93;;;;;;;22.87;64.92;101520.88;5005168;28;20037;-43
2022/05/19 09:40:35;;;;;;;14.88;6.78;;;;;;;22.90;64.93;101512.72;4996695;28;20054;-45
2022/05/19 09:43:14;;;;;;;12.32;6.43;;;;;;;22.94;64.77;101516.44;4997773;28;20080;-45
2022/05/19 09:45:50;;;;;;;15.05;7.28;;;;;;;22.99;64.11;101517.44;5007564;28;20056;-48
2022/05/19 09:48:27;;;;;;;15.10;6.18;;;;;;;23.03;63.99;101518.41;5016550;28;20050;-47
2022/05/19 09:51:03;;;;;;;10.65;5.80;;;;;;;23.03;63.37;101523.94;5014903;28;20492;-46
2022/05/19 09:53:38;;;;;;;12.57;6.53;;;;;;;23.07;63.50;101525.72;5013898;28;20100;-47
2022/05/19 09:56:12;;;;;;;11.40;6.28;;;;;;;23.09;62.50;101522.59;5021371;28;20065;-48
2022/05/19 09:58:44;;;;;;;12.98;6.13;;;;;;;23.14;61.87;101519.66;5032629;28;20207;-46
2022/05/19 10:01:37;;;;;;;12.40;6.03;;;;;;;23.16;62.19;101509.81;5014049;28;20485;-47
2022/05/19 10:04:42;;;;;;;9.68;5.50;;;;;;;23.24;62.33;101512.88;5015395;28;20052;-47
2022/05/19 10:07:17;;;;;;;12.68;6.28;;;;;;;23.30;62.06;101505.94;5028658;28;20049;-48
2022/05/19 10:09:47;;;;;;;13.48;6.30;;;;;;;23.31;61.80;101500.06;5032194;28;20033;-45
2022/05/19 10:12:25;;;;;;;13.75;7.22;;;;;;;23.36;61.28;101499.84;5031919;28;20049;-46
2022/05/19 10:15:00;;;;;;;13.10;6.70;;;;;;;23.40;60.77;101499.97;5013933;28;20056;-46
2022/05/19 10:17:50;;;;;;;14.43;7.05;;;;;;;23.42;61.29;101485.75;5012275;28;20057;-47
2022/05/19 10:20:23;;;;;;;11.77;6.50;;;;;;;23.42;61.81;101477.41;5014534;28;20140;-46
2022/05/19 10:23:30;;;;;;;17.63;6.97;;;;;;;23.54;62.09;101460.75;5013088;28;20091;-47
2022/05/19 10:26:26;;;;;;;14.35;6.32;;;;;;;23.64;61.38;101451.19;5031674;28;20049;-46
2022/05/19 10:32:28;;;;;;;13.98;5.38;;;;;;;23.74;61.16;101442.44;5016627;28;20042;-47
2022/05/19 10:34:57;;;;;;;19.20;7.20;;;;;;;23.78;60.99;101446.16;5031006;28;20132;-47
2022/05/19 10:38:05;;;;;;;9.05;5.38;;;;;;;23.90;59.53;101448.19;5024054;28;20042;-49
2022/05/19 10:40:41;;;;;;;10.50;5.95;;;;;;;23.93;57.81;101439.13;5013199;28;20069;-44
2022/05/19 10:43:28;;;;;;;12.13;5.53;;;;;;;23.97;57.51;101445.66;5029404;28;20493;-50
2022/05/19 10:45:59;;;;;;;8.77;5.05;;;;;;;24.08;57.35;101451.59;5014510;28;20496;-46
2022/05/19 10:48:54;;;;;;;11.45;5.70;;;;;;;24.09;56.37;101454.03;5032898;28;20388;-46
2022/05/19 10:51:48;;;;;;;11.63;5.13;;;;;;;24.11;56.07;101446.13;5013344;28;20129;-47
2022/05/19 10:54:39;;;;;;;8.70;4.18;;;;;;;24.18;56.02;101438.03;5013295;28;20096;-46
2022/05/19 10:57:23;;;;;;;9.30;4.50;;;;;;;24.20;55.70;101441.28;5014749;28;20060;-46
2022/05/19 11:00:17;;;;;;;12.20;4.60;;;;;;;24.23;55.26;101432.22;5032516;28;20049;-47
2022/05/19 11:02:54;;;;;;;9.52;4.60;;;;;;;24.30;54.37;101431.66;5013544;28;20061;-47
2022/05/19 11:05:25;;;;;;;15.63;7.53;;;;;;;24.29;54.54;101434.78;5013914;28;20073;-48
2022/05/19 11:08:21;;;;;;;12.48;4.57;;;;;;;24.30;53.85;101433.66;5013246;28;20049;-47
2022/05/19 11:11:08;;;;;;;17.35;4.63;;;;;;;24.26;53.90;101435.50;5010496;28;20041;-46
2022/05/19 11:13:47;;;;;;;9.27;4.78;;;;;;;24.26;53.84;101433.50;5030753;28;20050;-49
2022/05/19 11:16:20;;;;;;;11.05;4.78;;;;;;;24.22;54.41;101436.19;5032816;28;20056;-50
2022/05/19 11:18:55;;;;;;;10.05;4.50;;;;;;;24.18;54.46;101445.59;5014090;28;20096;-49
2022/05/19 11:21:53;;;;;;;10.25;4.45;;;;;;;24.09;54.93;101437.31;5013096;28;20466;-47
2022/05/19 11:24:34;;;;;;;10.45;4.20;;;;;;;24.06;55.03;101414.94;5013237;28;20049;-49
2022/05/19 11:27:13;;;;;;;11.05;4.72;;;;;;;24.05;55.24;101408.53;5014799;28;20073;-51
2022/05/19 11:29:48;;;;;;;10.43;4.90;;;;;;;24.03;55.32;101411.69;5013729;28;20073;-46
2022/05/19 11:32:23;;;;;;;11.20;4.88;;;;;;;24.02;55.19;101423.16;5015107;28;20508;-46
2022/05/19 11:35:16;;;;;;;8.40;4.28;;;;;;;24.01;55.36;101438.25;4993086;28;20044;-52
2022/05/19 11:38:03;;;;;;;10.13;4.32;;;;;;;23.98;56.10;101450.03;5030881;28;20050;-48
2022/05/19 11:40:33;;;;;;;13.13;4.68;;;;;;;23.95;56.08;101442.38;5031028;28;20062;-47
2022/05/19 11:43:18;;;;;;;10.07;4.18;;;;;;;23.90;56.23;101446.19;5012369;28;20489;-50
2022/05/19 11:46:02;;;;;;;10.73;4.50;;;;;;;23.89;56.33;101438.22;5011646;28;20038;-50
2022/05/19 11:55:20;;;;;;;8.32;4.15;;;;;;;23.85;56.75;101509.63;5018396;28;20049;-47
2022/05/19 11:57:59;;;;;;;14.18;3.53;;;;;;;23.88;61.10;101770.56;5004543;28;20045;-46
2022/05/19 12:00:47;;;;;;;46.28;5.70;;;;;;;22.58;74.95;101835.56;5017905;28;20041;-47
2022/05/19 12:03:23;;;;;;;13.98;4.07;;;;;;;20.80;84.58;101802.03;5022853;28;20053;-49
2022/05/19 12:06:13;;;;;;;11.13;3.10;;;;;;;19.74;89.32;101761.72;5008679;28;20041;-49